Time;durP1;ratioP1;P1;durP2;ratioP2;P2;SDS_P1;SDS_P2;PMS_P1;PMS_P2;Temp;Humidity;BMP_temperature;BMP_pressure;BME280_temperature;BME280_humidity;BME280_pressure;Samples;Min_cycle;Max_cycle;Signal;HPM_P1;HPM_P2
2024/01/27 00:00:29;;;;;;;7.05;3.05;;;2.60;99.90;;;;;;5070311;28;20053;-63
2024/01/27 00:02:56;;;;;;;6.68;1.58;;;2.70;99.90;;;;;;5078125;28;20076;-64
2024/01/27 00:05:28;;;;;;;1.83;1.23;;;2.50;99.90;;;;;;5076140;28;20045;-63
2024/01/27 00:07:59;;;;;;;1.63;1.30;;;2.20;99.90;;;;;;5072209;28;20382;-64
2024/01/27 00:10:31;;;;;;;4.15;1.50;;;2.10;99.90;;;;;;5072448;28;20039;-64
2024/01/27 00:13:03;;;;;;;3.05;1.77;;;2.00;99.90;;;;;;5069775;28;20619;-64
2024/01/27 00:15:35;;;;;;;6.00;1.58;;;1.90;99.90;;;;;;5080690;28;20064;-64
2024/01/27 00:18:06;;;;;;;4.20;1.38;;;1.90;99.90;;;;;;5080156;28;20041;-64
2024/01/27 00:20:38;;;;;;;4.70;1.85;;;1.90;99.90;;;;;;5080008;28;21223;-64
2024/01/27 00:23:10;;;;;;;5.72;2.13;;;2.00;99.90;;;;;;5082195;28;20060;-64
2024/01/27 00:25:42;;;;;;;3.10;1.88;;;2.10;99.90;;;;;;5080476;28;20516;-64
2024/01/27 00:28:14;;;;;;;4.05;2.15;;;2.10;99.90;;;;;;5066712;28;20052;-64
2024/01/27 00:30:46;;;;;;;3.90;1.50;;;2.00;99.90;;;;;;5063018;28;20037;-64
2024/01/27 00:33:18;;;;;;;5.90;1.80;;;1.90;99.90;;;;;;5059544;28;20045;-64
2024/01/27 00:35:51;;;;;;;3.88;1.65;;;1.90;99.90;;;;;;5059701;28;20045;-64
2024/01/27 00:38:23;;;;;;;4.38;1.70;;;1.80;99.90;;;;;;5060530;28;20056;-64
2024/01/27 00:40:55;;;;;;;2.47;1.52;;;1.70;99.90;;;;;;5074302;28;20052;-64
2024/01/27 00:43:26;;;;;;;2.22;1.48;;;1.50;99.90;;;;;;5064051;28;20050;-64
2024/01/27 00:45:58;;;;;;;6.57;2.28;;;1.60;99.90;;;;;;5072256;28;20075;-64
2024/01/27 00:48:30;;;;;;;3.30;1.45;;;1.40;99.90;;;;;;5064541;28;20043;-64
2024/01/27 00:51:02;;;;;;;2.80;1.42;;;1.30;99.90;;;;;;5061401;28;20032;-64
2024/01/27 00:53:33;;;;;;;4.05;1.88;;;1.20;99.90;;;;;;5064626;28;20044;-64
2024/01/27 00:56:05;;;;;;;6.03;2.03;;;1.30;99.90;;;;;;5061964;28;20713;-63
2024/01/27 00:58:37;;;;;;;5.55;2.05;;;1.30;99.90;;;;;;5073981;28;20100;-63
2024/01/27 01:01:09;;;;;;;4.55;1.70;;;1.40;99.90;;;;;;5057741;28;20040;-63
2024/01/27 01:03:41;;;;;;;3.85;1.50;;;1.50;99.90;;;;;;5056029;28;20112;-63
2024/01/27 01:06:12;;;;;;;5.13;1.70;;;1.40;99.90;;;;;;5063876;28;20090;-63
2024/01/27 01:08:45;;;;;;;4.53;1.42;;;1.50;99.90;;;;;;5062121;28;20618;-63
2024/01/27 01:11:11;;;;;;;3.95;1.90;;;1.40;99.90;;;;;;5056074;28;20051;-63
2024/01/27 01:13:43;;;;;;;2.40;1.33;;;1.40;99.90;;;;;;5061129;28;20412;-63
2024/01/27 01:16:15;;;;;;;3.53;1.50;;;1.40;99.90;;;;;;5066479;28;20106;-63
2024/01/27 01:18:47;;;;;;;5.07;1.90;;;1.40;99.90;;;;;;5056870;28;20123;-63
2024/01/27 01:21:14;;;;;;;6.15;1.52;;;1.40;99.90;;;;;;5064342;28;20112;-63
2024/01/27 01:23:46;;;;;;;4.60;1.35;;;1.30;99.90;;;;;;5060328;28;20055;-65
2024/01/27 01:26:18;;;;;;;2.95;1.67;;;1.20;99.90;;;;;;5065111;28;20055;-63
2024/01/27 01:28:50;;;;;;;4.15;1.30;;;1.00;99.90;;;;;;5048676;28;20068;-63
2024/01/27 01:31:17;;;;;;;4.25;2.00;;;1.00;99.90;;;;;;5054678;28;20123;-63
2024/01/27 01:33:44;;;;;;;4.53;1.70;;;1.10;99.90;;;;;;5057350;28;20045;-64
2024/01/27 01:36:11;;;;;;;4.85;1.67;;;1.20;99.90;;;;;;5067383;28;20031;-63
2024/01/27 01:38:43;;;;;;;4.70;1.50;;;1.30;99.90;;;;;;5079898;28;20108;-63
2024/01/27 01:41:15;;;;;;;5.78;1.30;;;1.30;99.90;;;;;;5061450;28;20043;-63
2024/01/27 01:43:47;;;;;;;2.53;1.45;;;1.30;99.90;;;;;;5067941;28;20496;-63
2024/01/27 01:46:18;;;;;;;5.97;1.70;;;1.40;99.90;;;;;;5029707;28;20041;-63
2024/01/27 01:48:54;;;;;;;3.03;1.40;;;1.30;99.90;;;;;;5059143;28;20111;-63
2024/01/27 01:51:27;;;;;;;3.20;1.77;;;1.30;99.90;;;;;;5051265;28;20104;-62
2024/01/27 01:54:00;;;;;;;5.65;1.88;;;1.30;99.90;;;;;;5065805;28;20050;-63
2024/01/27 01:56:31;;;;;;;5.20;1.75;;;1.30;99.90;;;;;;5060384;28;20036;-63
2024/01/27 01:59:03;;;;;;;6.82;1.80;;;1.40;99.90;;;;;;5065103;28;20040;-64
2024/01/27 02:01:35;;;;;;;3.65;1.70;;;1.40;99.90;;;;;;5072059;28;20049;-63
2024/01/27 02:04:06;;;;;;;3.53;2.05;;;1.40;99.90;;;;;;5053687;28;20501;-63
2024/01/27 02:06:38;;;;;;;3.92;1.95;;;1.40;99.90;;;;;;5056433;28;20087;-62
2024/01/27 02:09:11;;;;;;;5.85;1.95;;;1.40;99.90;;;;;;5058876;28;20071;-63
2024/01/27 02:11:42;;;;;;;2.67;1.80;;;1.50;99.90;;;;;;5061104;28;20126;-63
2024/01/27 02:14:14;;;;;;;6.47;2.85;;;1.50;99.90;;;;;;5060955;28;20423;-63
2024/01/27 02:16:46;;;;;;;3.47;2.13;;;1.50;99.90;;;;;;5058997;28;20467;-63
2024/01/27 02:19:13;;;;;;;7.30;2.10;;;1.60;99.90;;;;;;5066397;28;20033;-63
2024/01/27 02:21:45;;;;;;;5.50;1.75;;;1.60;99.90;;;;;;5067698;28;20110;-63
2024/01/27 02:24:17;;;;;;;4.72;2.00;;;1.60;99.90;;;;;;5058869;28;20076;-63
2024/01/27 02:26:44;;;;;;;3.75;2.58;;;1.60;99.90;;;;;;5067922;28;20048;-63
2024/01/27 02:29:15;;;;;;;6.07;1.73;;;1.60;99.90;;;;;;5070803;28;20049;-64
2024/01/27 02:31:47;;;;;;;4.95;1.63;;;1.60;99.90;;;;;;5067945;28;20119;-63
2024/01/27 02:34:19;;;;;;;4.90;1.65;;;1.60;99.90;;;;;;5065876;28;20040;-63
2024/01/27 02:36:46;;;;;;;3.75;1.67;;;1.60;99.90;;;;;;5063099;28;20048;-63
2024/01/27 02:39:17;;;;;;;2.65;1.60;;;1.40;99.90;;;;;;5061964;28;20067;-63
2024/01/27 02:41:49;;;;;;;2.25;1.45;;;1.40;99.90;;;;;;5059750;28;20076;-63
2024/01/27 02:44:21;;;;;;;2.83;1.63;;;1.40;99.90;;;;;;5064799;28;20524;-63
2024/01/27 02:46:53;;;;;;;2.90;1.63;;;1.40;99.90;;;;;;5052863;28;20467;-63
2024/01/27 02:53:31;;;;;;;;;;;1.40;99.90;;;;;;5051111;28;20050;-63
2024/01/27 02:56:07;;;;;;;5.00;1.58;;;1.40;99.90;;;;;;5057074;28;20003;-63
2024/01/27 02:58:40;;;;;;;4.43;1.60;;;1.40;99.90;;;;;;5061441;28;20684;-63
2024/01/27 03:01:08;;;;;;;3.20;1.92;;;1.40;99.90;;;;;;5064478;28;20040;-63
2024/01/27 03:03:40;;;;;;;2.75;1.55;;;1.30;99.90;;;;;;5057370;28;20383;-63
2024/01/27 03:06:11;;;;;;;3.10;1.40;;;1.30;99.90;;;;;;5061283;28;20041;-63
2024/01/27 03:08:43;;;;;;;3.90;1.52;;;1.20;99.90;;;;;;5062414;28;20041;-62
2024/01/27 03:11:15;;;;;;;4.70;1.50;;;1.20;99.90;;;;;;5064166;28;20190;-63
2024/01/27 03:13:47;;;;;;;3.35;1.65;;;1.30;99.90;;;;;;5067958;28;20405;-63
2024/01/27 03:16:19;;;;;;;5.30;1.60;;;1.20;99.90;;;;;;5047990;28;20052;-63
2024/01/27 03:18:51;;;;;;;4.03;1.75;;;1.10;99.90;;;;;;5053388;28;20044;-63
2024/01/27 03:21:23;;;;;;;3.88;1.48;;;1.10;99.90;;;;;;5053196;28;20066;-63
2024/01/27 03:23:50;;;;;;;3.13;1.60;;;1.10;99.90;;;;;;5051494;28;20126;-63
2024/01/27 03:26:22;;;;;;;6.85;1.80;;;1.10;99.90;;;;;;5055689;28;20041;-63
2024/01/27 03:28:54;;;;;;;6.88;2.00;;;1.10;99.90;;;;;;5062881;28;20575;-63
2024/01/27 03:31:20;;;;;;;5.68;2.08;;;1.10;99.90;;;;;;5062286;28;20051;-64
2024/01/27 03:33:52;;;;;;;6.03;1.90;;;1.10;99.90;;;;;;5061560;28;20047;-63
2024/01/27 03:36:24;;;;;;;3.80;1.70;;;1.20;99.90;;;;;;5058048;28;20040;-63
2024/01/27 03:38:59;;;;;;;4.30;1.67;;;1.10;99.90;;;;;;5047350;28;20079;-63
2024/01/27 03:41:30;;;;;;;3.42;1.60;;;0.90;99.90;;;;;;5062664;28;20456;-63
2024/01/27 03:43:57;;;;;;;3.60;1.80;;;0.80;99.90;;;;;;5053571;28;20044;-63
2024/01/27 03:46:29;;;;;;;3.80;2.38;;;0.80;99.90;;;;;;5058317;28;20037;-62
2024/01/27 03:49:01;;;;;;;4.22;1.80;;;0.70;99.90;;;;;;5073248;28;20049;-63
2024/01/27 03:51:33;;;;;;;3.60;2.05;;;0.70;99.90;;;;;;5051085;28;20045;-63
2024/01/27 03:54:00;;;;;;;5.57;2.47;;;0.80;99.90;;;;;;5055982;28;20386;-63
2024/01/27 03:56:32;;;;;;;3.90;2.00;;;0.70;99.90;;;;;;5057673;28;20531;-63
2024/01/27 03:59:06;;;;;;;4.18;1.85;;;0.70;99.90;;;;;;5059727;28;20045;-64
2024/01/27 04:01:38;;;;;;;6.78;1.85;;;0.80;99.90;;;;;;5061555;28;20509;-63
2024/01/27 04:04:09;;;;;;;5.07;2.13;;;0.90;99.90;;;;;;5064811;28;20045;-63
2024/01/27 04:06:41;;;;;;;5.50;2.17;;;0.90;99.90;;;;;;5069893;28;20544;-63
2024/01/27 04:09:11;;;;;;;6.00;1.83;;;0.90;99.90;;;;;;5072827;28;20051;-63
2024/01/27 04:11:43;;;;;;;3.40;2.17;;;0.90;99.90;;;;;;5072955;28;20048;-63
2024/01/27 04:14:15;;;;;;;7.10;2.50;;;1.00;99.90;;;;;;5073738;28;20041;-63
2024/01/27 04:16:47;;;;;;;5.15;1.85;;;1.10;99.90;;;;;;5071812;28;20072;-62
2024/01/27 04:19:18;;;;;;;6.25;2.00;;;1.00;99.90;;;;;;5056723;28;20043;-63
2024/01/27 04:21:45;;;;;;;3.88;1.80;;;1.00;99.90;;;;;;5060150;28;20094;-63
2024/01/27 04:24:17;;;;;;;4.88;1.95;;;0.90;99.90;;;;;;5064495;28;20420;-65
2024/01/27 04:26:49;;;;;;;4.88;2.00;;;0.90;99.90;;;;;;5065597;28;20460;-63
2024/01/27 04:29:21;;;;;;;2.67;2.03;;;0.80;99.90;;;;;;5066208;28;20136;-63
2024/01/27 04:31:53;;;;;;;5.10;2.28;;;0.80;99.90;;;;;;5069596;28;20041;-63
2024/01/27 04:34:24;;;;;;;5.85;2.05;;;0.80;99.90;;;;;;5070368;28;20083;-63
2024/01/27 04:36:57;;;;;;;3.95;1.95;;;0.80;99.90;;;;;;5072035;28;20051;-65
2024/01/27 04:39:24;;;;;;;3.67;2.40;;;0.70;99.90;;;;;;5074351;28;20068;-63
2024/01/27 04:41:56;;;;;;;4.80;2.25;;;0.70;99.90;;;;;;5071290;28;20040;-63
2024/01/27 04:44:23;;;;;;;4.53;1.90;;;0.60;99.90;;;;;;5069204;28;20098;-63
2024/01/27 04:46:55;;;;;;;3.17;1.88;;;0.60;99.90;;;;;;5067255;28;20045;-63
2024/01/27 04:49:27;;;;;;;4.82;3.15;;;0.60;99.90;;;;;;5060580;28;20540;-63
2024/01/27 04:51:59;;;;;;;2.97;1.88;;;0.50;99.90;;;;;;5062769;28;20110;-62
2024/01/27 04:54:30;;;;;;;4.13;2.20;;;0.50;99.90;;;;;;5066195;28;20044;-64
2024/01/27 04:56:57;;;;;;;5.65;2.40;;;0.60;99.90;;;;;;5033774;28;20037;-63
2024/01/27 04:59:29;;;;;;;5.35;3.45;;;0.70;99.90;;;;;;5055739;28;20829;-63
2024/01/27 05:01:56;;;;;;;5.70;2.78;;;0.50;99.90;;;;;;5058677;28;20569;-63
2024/01/27 05:04:28;;;;;;;3.35;1.70;;;0.50;99.90;;;;;;5061423;28;20037;-63
2024/01/27 05:06:55;;;;;;;4.05;2.33;;;0.50;99.90;;;;;;5071432;28;20045;-63
2024/01/27 05:09:27;;;;;;;4.85;2.35;;;0.50;99.90;;;;;;5070698;28;20463;-63
2024/01/27 05:12:00;;;;;;;10.05;3.05;;;0.60;99.90;;;;;;5060019;28;20073;-63
2024/01/27 05:14:31;;;;;;;3.78;2.50;;;0.50;99.90;;;;;;5061786;28;20041;-63
2024/01/27 05:17:03;;;;;;;9.95;3.20;;;0.60;99.90;;;;;;5063892;28;20608;-63
2024/01/27 05:19:35;;;;;;;4.07;2.10;;;0.70;99.90;;;;;;5064979;28;20071;-63
2024/01/27 05:22:07;;;;;;;4.45;2.47;;;0.70;99.90;;;;;;5059792;28;20099;-63
2024/01/27 05:24:39;;;;;;;4.63;2.40;;;0.80;99.90;;;;;;5058580;28;20064;-63
2024/01/27 05:27:11;;;;;;;7.28;2.95;;;0.80;99.90;;;;;;5064139;28;20108;-63
2024/01/27 05:29:43;;;;;;;4.60;2.13;;;0.70;99.90;;;;;;5056632;28;20041;-64
2024/01/27 05:32:09;;;;;;;6.47;3.03;;;0.70;99.90;;;;;;5054631;28;20193;-64
2024/01/27 05:34:41;;;;;;;8.35;2.05;;;0.70;99.90;;;;;;5056503;28;20081;-63
2024/01/27 05:37:08;;;;;;;4.25;2.22;;;0.70;99.90;;;;;;5066885;28;20041;-62
2024/01/27 05:39:40;;;;;;;4.85;2.22;;;0.70;99.90;;;;;;5044652;28;20045;-63
2024/01/27 05:42:12;;;;;;;4.13;2.08;;;0.70;99.90;;;;;;5060664;28;20041;-63
2024/01/27 05:44:45;;;;;;;4.05;2.25;;;0.70;99.90;;;;;;5061133;28;20068;-63
2024/01/27 05:47:16;;;;;;;5.55;2.42;;;0.70;99.90;;;;;;5042147;28;20057;-63
2024/01/27 05:49:48;;;;;;;4.80;1.95;;;0.70;99.90;;;;;;5056621;28;20041;-63
2024/01/27 05:52:20;;;;;;;5.05;2.40;;;0.60;99.90;;;;;;5056974;28;20045;-63
2024/01/27 05:54:52;;;;;;;5.95;2.15;;;0.60;99.90;;;;;;5070845;28;20059;-63
2024/01/27 05:57:24;;;;;;;5.20;2.65;;;0.60;99.90;;;;;;5068158;28;20743;-63
2024/01/27 05:59:56;;;;;;;4.95;2.08;;;0.50;99.90;;;;;;5076718;28;20073;-63
2024/01/27 06:02:30;;;;;;;4.13;1.98;;;0.50;99.90;;;;;;5060327;28;20094;-63
2024/01/27 06:05:04;;;;;;;4.85;2.30;;;0.50;99.90;;;;;;5067562;28;20055;-64
2024/01/27 06:07:38;;;;;;;8.13;3.10;;;0.50;99.90;;;;;;5059035;28;20082;-63
2024/01/27 06:10:10;;;;;;;7.40;2.60;;;0.40;99.90;;;;;;5064060;28;20131;-63
2024/01/27 06:12:42;;;;;;;7.43;2.90;;;0.30;99.90;;;;;;5061263;28;20041;-63
2024/01/27 06:15:15;;;;;;;5.60;2.78;;;0.30;99.90;;;;;;5058086;28;20041;-63
2024/01/27 06:17:47;;;;;;;3.90;2.10;;;0.30;99.90;;;;;;5067251;28;20071;-63
2024/01/27 06:20:19;;;;;;;6.03;2.65;;;0.40;99.90;;;;;;5052035;28;20037;-63
2024/01/27 06:22:52;;;;;;;5.47;2.70;;;0.40;99.90;;;;;;5066619;28;20044;-68
2024/01/27 06:25:20;;;;;;;5.60;2.70;;;0.40;99.90;;;;;;5047447;28;20044;-63
2024/01/27 06:27:48;;;;;;;5.63;2.78;;;0.40;99.90;;;;;;5061096;28;20045;-63
2024/01/27 06:30:20;;;;;;;5.38;3.00;;;0.40;99.90;;;;;;5059229;28;20135;-63
2024/01/27 06:32:52;;;;;;;6.43;2.90;;;0.50;99.90;;;;;;5067153;28;20063;-63
2024/01/27 06:35:24;;;;;;;7.20;2.78;;;0.40;99.90;;;;;;5065363;28;20571;-63
2024/01/27 06:37:56;;;;;;;5.97;2.63;;;0.30;99.90;;;;;;5060450;28;20455;-63
2024/01/27 06:40:28;;;;;;;12.02;5.50;;;0.20;99.90;;;;;;5064558;28;20064;-63
2024/01/27 06:42:54;;;;;;;62.17;34.03;;;0.20;99.90;;;;;;5067231;28;20055;-63
2024/01/27 06:45:21;;;;;;;135.25;83.30;;;0.10;99.90;;;;;;5052314;28;20044;-63
2024/01/27 06:47:53;;;;;;;104.78;63.35;;;0.00;99.90;;;;;;5071315;28;20068;-63
2024/01/27 06:50:25;;;;;;;38.83;26.50;;;0.00;99.90;;;;;;5050700;28;20041;-63
2024/01/27 06:52:56;;;;;;;18.98;11.98;;;-0.10;99.90;;;;;;5054058;28;20051;-63
2024/01/27 06:55:28;;;;;;;10.45;6.70;;;-0.10;99.90;;;;;;5057433;28;20127;-64
2024/01/27 06:58:00;;;;;;;10.57;5.03;;;-0.20;99.90;;;;;;5066088;28;20045;-63
2024/01/27 07:00:27;;;;;;;6.93;4.50;;;-0.20;99.90;;;;;;5065930;28;20040;-63
2024/01/27 07:02:59;;;;;;;9.48;4.60;;;-0.20;99.90;;;;;;5062904;28;20531;-63
2024/01/27 07:05:33;;;;;;;6.25;3.97;;;-0.30;99.90;;;;;;5061580;28;20452;-63
2024/01/27 07:08:06;;;;;;;7.22;4.47;;;-0.30;99.90;;;;;;5042421;28;20068;-63
2024/01/27 07:10:38;;;;;;;9.57;4.47;;;-0.30;99.90;;;;;;5067279;28;20636;-63
2024/01/27 07:13:11;;;;;;;7.00;3.70;;;-0.30;99.90;;;;;;5069348;28;20116;-63
2024/01/27 07:15:38;;;;;;;5.72;3.63;;;-0.40;99.90;;;;;;5072583;28;20132;-63
2024/01/27 07:18:10;;;;;;;8.38;4.07;;;-0.40;99.90;;;;;;5071151;28;20032;-63
2024/01/27 07:20:42;;;;;;;7.38;3.22;;;-0.40;99.90;;;;;;5061249;28;20428;-63
2024/01/27 07:23:09;;;;;;;4.70;2.60;;;-0.30;99.90;;;;;;5067845;28;20535;-63
2024/01/27 07:25:41;;;;;;;4.53;2.53;;;-0.30;99.90;;;;;;5065337;28;20041;-63
2024/01/27 07:28:15;;;;;;;5.68;4.38;;;-0.30;99.90;;;;;;5062387;28;20044;-63
2024/01/27 07:30:47;;;;;;;7.40;3.17;;;-0.30;99.90;;;;;;5061994;28;20049;-63
2024/01/27 07:33:18;;;;;;;6.88;3.42;;;-0.30;99.90;;;;;;5049018;28;20569;-63
2024/01/27 07:35:50;;;;;;;9.60;4.65;;;-0.30;99.90;;;;;;5059458;28;20103;-63
2024/01/27 07:38:22;;;;;;;7.88;5.63;;;-0.30;99.90;;;;;;5060801;28;20055;-63
2024/01/27 07:40:54;;;;;;;7.00;4.15;;;-0.30;99.90;;;;;;5057140;28;20065;-63
2024/01/27 07:43:27;;;;;;;7.53;4.07;;;-0.30;99.90;;;;;;5057725;28;20140;-63
2024/01/27 07:45:59;;;;;;;13.05;3.58;;;-0.30;99.90;;;;;;5057239;28;20048;-63
2024/01/27 07:48:26;;;;;;;7.50;3.65;;;-0.30;99.90;;;;;;5060251;28;20115;-63
2024/01/27 07:50:57;;;;;;;4.97;3.22;;;-0.30;99.90;;;;;;5058689;28;20047;-63
2024/01/27 07:53:29;;;;;;;9.85;4.53;;;-0.30;99.90;;;;;;5059738;28;20052;-63
2024/01/27 07:56:02;;;;;;;8.90;5.18;;;-0.30;99.90;;;;;;5063221;28;20051;-63
2024/01/27 07:58:33;;;;;;;6.45;4.18;;;-0.30;99.90;;;;;;5053194;28;20041;-63
2024/01/27 08:01:05;;;;;;;8.75;6.15;;;-0.30;99.90;;;;;;5058884;28;20041;-63
2024/01/27 08:03:38;;;;;;;8.88;4.90;;;-0.30;99.90;;;;;;5057721;28;20049;-63
2024/01/27 08:06:07;;;;;;;7.07;4.80;;;-0.30;99.90;;;;;;5060862;28;20036;-63
2024/01/27 08:08:34;;;;;;;7.28;3.85;;;-0.30;99.90;;;;;;5051437;28;20071;-64
2024/01/27 08:11:06;;;;;;;7.32;4.25;;;-0.30;99.90;;;;;;5079940;28;20108;-64
2024/01/27 08:13:38;;;;;;;8.02;4.40;;;-0.30;99.90;;;;;;5068522;28;20540;-65
2024/01/27 08:16:05;;;;;;;7.97;4.28;;;-0.20;99.90;;;;;;5068635;28;20046;-64
2024/01/27 08:18:38;;;;;;;7.63;4.13;;;-0.20;99.90;;;;;;5057885;28;20052;-65
2024/01/27 08:21:11;;;;;;;5.38;3.20;;;-0.20;99.90;;;;;;5062871;28;20416;-64
2024/01/27 08:23:44;;;;;;;5.68;3.15;;;-0.20;99.90;;;;;;5055190;28;20098;-64
2024/01/27 08:26:16;;;;;;;7.10;3.05;;;-0.10;99.90;;;;;;5059940;28;20044;-64
2024/01/27 08:28:48;;;;;;;14.68;5.35;;;0.00;99.90;;;;;;5046192;28;20416;-63
2024/01/27 08:31:20;;;;;;;7.00;3.03;;;0.10;99.90;;;;;;5050077;28;20456;-63
2024/01/27 08:33:52;;;;;;;9.80;2.90;;;0.40;99.90;;;;;;5060448;28;20102;-64
2024/01/27 08:36:25;;;;;;;7.82;4.25;;;0.50;99.90;;;;;;5063214;28;20041;-63
2024/01/27 08:38:58;;;;;;;7.35;3.45;;;0.50;99.90;;;;;;5072642;28;20801;-63
2024/01/27 08:41:30;;;;;;;9.18;4.15;;;0.60;99.90;;;;;;5069024;28;20041;-64
2024/01/27 08:44:02;;;;;;;4.85;3.05;;;0.60;99.90;;;;;;5066247;28;20051;-64
2024/01/27 08:46:34;;;;;;;15.18;3.33;;;0.70;99.90;;;;;;5062897;28;20041;-63
2024/01/27 08:49:01;;;;;;;6.78;3.08;;;0.80;99.90;;;;;;5065408;28;20049;-64
2024/01/27 08:51:28;;;;;;;8.02;3.25;;;0.90;99.90;;;;;;5050485;28;20135;-63
2024/01/27 08:54:00;;;;;;;9.70;3.30;;;1.00;99.90;;;;;;5056938;28;20045;-64
2024/01/27 08:56:31;;;;;;;7.53;2.67;;;1.00;99.90;;;;;;5060698;28;20057;-63
2024/01/27 08:59:03;;;;;;;13.52;7.57;;;1.10;99.90;;;;;;5051960;28;20279;-64
2024/01/27 09:01:35;;;;;;;11.55;5.57;;;1.10;99.90;;;;;;5059133;28;20425;-63
2024/01/27 09:04:09;;;;;;;11.32;4.15;;;1.10;99.90;;;;;;5041379;28;20048;-64
2024/01/27 09:06:41;;;;;;;;;;;1.20;99.90;;;;;;5060705;28;20044;-64
2024/01/27 09:09:13;;;;;;;10.43;4.03;;;1.20;99.90;;;;;;5069299;28;19921;-64
2024/01/27 09:11:46;;;;;;;10.68;6.07;;;1.30;99.90;;;;;;5048043;28;20045;-64
2024/01/27 09:14:13;;;;;;;16.20;8.70;;;1.30;99.90;;;;;;5056323;28;20061;-64
2024/01/27 09:16:46;;;;;;;20.77;10.40;;;1.40;99.90;;;;;;5055505;28;20041;-64
2024/01/27 09:19:18;;;;;;;20.95;12.93;;;1.40;99.90;;;;;;5050781;28;20601;-64
2024/01/27 09:21:45;;;;;;;15.07;10.75;;;1.50;99.90;;;;;;5058376;28;20037;-63
2024/01/27 09:24:17;;;;;;;15.32;9.35;;;1.60;99.90;;;;;;5049510;28;20751;-63
2024/01/27 09:26:44;;;;;;;19.67;10.25;;;1.60;99.90;;;;;;5047214;28;20086;-63
2024/01/27 09:29:15;;;;;;;15.32;8.60;;;1.70;99.90;;;;;;5037203;28;20056;-64
2024/01/27 09:31:47;;;;;;;10.82;6.93;;;1.70;99.90;;;;;;5058684;28;21068;-63
2024/01/27 09:34:19;;;;;;;17.67;10.82;;;1.80;99.90;;;;;;5046585;28;20571;-64
2024/01/27 09:36:51;;;;;;;21.17;9.88;;;1.80;99.90;;;;;;5045619;28;20051;-64
2024/01/27 09:39:18;;;;;;;16.13;8.23;;;1.90;99.90;;;;;;5057285;28;20123;-64
2024/01/27 09:41:51;;;;;;;13.40;7.72;;;2.00;99.90;;;;;;5055713;28;20041;-64
2024/01/27 09:44:25;;;;;;;16.27;8.82;;;2.10;99.90;;;;;;5049294;28;20042;-64
2024/01/27 09:46:57;;;;;;;15.35;8.90;;;2.20;99.90;;;;;;5057349;28;20417;-65
2024/01/27 09:49:27;;;;;;;14.38;8.25;;;2.30;99.90;;;;;;5054543;28;20476;-64
2024/01/27 09:51:56;;;;;;;19.35;7.72;;;2.30;99.90;;;;;;5049228;28;20528;-64
2024/01/27 09:54:28;;;;;;;11.98;5.20;;;2.40;99.90;;;;;;5048538;28;20044;-64
2024/01/27 09:57:01;;;;;;;15.05;7.55;;;2.50;99.90;;;;;;5047899;28;20037;-63
2024/01/27 09:59:34;;;;;;;55.95;29.65;;;2.50;99.90;;;;;;5048446;28;20524;-63
2024/01/27 10:02:09;;;;;;;15.93;9.70;;;2.60;99.90;;;;;;5059786;28;20100;-64
2024/01/27 10:04:36;;;;;;;23.13;10.48;;;2.70;99.90;;;;;;5049362;28;20052;-63
2024/01/27 10:07:07;;;;;;;15.18;6.53;;;2.80;99.90;;;;;;5051123;28;20047;-64
2024/01/27 10:09:34;;;;;;;14.98;6.15;;;2.90;99.90;;;;;;5052067;28;20102;-64
2024/01/27 10:12:09;;;;;;;10.82;4.22;;;2.90;99.90;;;;;;5060425;28;20048;-64
2024/01/27 10:14:44;;;;;;;12.82;4.68;;;3.00;99.90;;;;;;5050560;28;20634;-64
2024/01/27 10:17:26;;;;;;;12.40;3.58;;;3.00;99.90;;;;;;5033009;28;20055;-64
2024/01/27 10:20:05;;;;;;;10.23;3.92;;;3.00;99.90;;;;;;5042784;28;20124;-65
2024/01/27 10:22:39;;;;;;;9.50;2.65;;;3.10;99.90;;;;;;5046592;28;20045;-64
2024/01/27 10:25:12;;;;;;;5.80;3.13;;;3.10;99.90;;;;;;5050511;28;20052;-64
2024/01/27 10:27:45;;;;;;;8.57;2.88;;;3.20;99.90;;;;;;5047952;28;20413;-64
2024/01/27 10:30:18;;;;;;;9.13;3.47;;;3.20;99.90;;;;;;5052065;28;20045;-64
2024/01/27 10:32:56;;;;;;;13.35;3.78;;;3.30;99.90;;;;;;5046452;28;20114;-65
2024/01/27 10:35:29;;;;;;;10.73;3.03;;;3.30;99.90;;;;;;5051342;28;20187;-64
2024/01/27 10:37:57;;;;;;;7.82;3.15;;;3.40;99.90;;;;;;5049444;28;20107;-64
2024/01/27 10:40:28;;;;;;;9.52;3.40;;;3.40;99.90;;;;;;5051143;28;20055;-64
2024/01/27 10:43:05;;;;;;;7.65;3.60;;;3.50;99.90;;;;;;5050891;28;20049;-65
2024/01/27 10:45:40;;;;;;;10.68;4.53;;;3.50;99.90;;;;;;5051540;28;20041;-64
2024/01/27 10:48:12;;;;;;;12.57;4.68;;;3.60;99.90;;;;;;5051361;28;20036;-64
2024/01/27 10:50:40;;;;;;;7.43;3.70;;;3.60;99.90;;;;;;5047349;28;20083;-64
2024/01/27 10:53:28;;;;;;;9.52;3.38;;;3.70;99.90;;;;;;5048402;28;20036;-64
2024/01/27 10:55:57;;;;;;;9.02;2.47;;;3.80;99.90;;;;;;5053421;28;20123;-65
2024/01/27 10:58:31;;;;;;;10.55;3.67;;;3.80;99.90;;;;;;5043908;28;20036;-64
2024/01/27 11:01:04;;;;;;;7.68;3.63;;;3.90;99.90;;;;;;5051198;28;20421;-64
2024/01/27 11:03:39;;;;;;;6.95;3.72;;;4.00;99.90;;;;;;5051484;28;20051;-64
2024/01/27 11:06:12;;;;;;;11.63;4.38;;;4.00;99.90;;;;;;5054684;28;20390;-64
2024/01/27 11:08:39;;;;;;;11.65;4.65;;;4.00;99.90;;;;;;5044801;28;20045;-64
2024/01/27 11:11:11;;;;;;;12.75;4.05;;;4.00;99.90;;;;;;5049624;28;20456;-64
2024/01/27 11:13:45;;;;;;;9.55;4.50;;;4.10;99.90;;;;;;5053007;28;20048;-64
2024/01/27 11:16:18;;;;;;;10.93;4.70;;;4.10;99.90;;;;;;5049174;28;20072;-64
2024/01/27 11:18:50;;;;;;;7.72;4.47;;;4.20;99.90;;;;;;5048639;28;20076;-64
2024/01/27 11:21:22;;;;;;;12.20;5.18;;;4.30;99.90;;;;;;5050495;28;20127;-64
2024/01/27 11:23:54;;;;;;;15.63;7.47;;;4.30;99.90;;;;;;5048113;28;20052;-64
2024/01/27 11:26:26;;;;;;;24.02;11.13;;;4.40;99.90;;;;;;5041178;28;20086;-64
2024/01/27 11:29:07;;;;;;;11.98;6.55;;;4.40;99.90;;;;;;5050860;28;20028;-64
2024/01/27 11:31:41;;;;;;;12.10;3.63;;;4.50;99.90;;;;;;5049742;28;20493;-64
2024/01/27 11:34:12;;;;;;;48.90;20.90;;;4.60;99.90;;;;;;5050918;28;20044;-64
2024/01/27 11:36:44;;;;;;;10.77;4.97;;;4.60;99.90;;;;;;5053535;28;20060;-64
2024/01/27 11:39:27;;;;;;;21.58;10.75;;;4.70;99.90;;;;;;5054385;28;20099;-65
2024/01/27 11:42:06;;;;;;;8.85;4.25;;;4.80;99.90;;;;;;5052861;28;20037;-64
2024/01/27 11:44:37;;;;;;;11.82;4.07;;;4.80;99.90;;;;;;5058780;28;20140;-64
2024/01/27 11:47:17;;;;;;;6.88;3.83;;;4.90;99.90;;;;;;5042391;28;20037;-65
2024/01/27 11:49:55;;;;;;;11.98;4.15;;;4.90;99.90;;;;;;5052527;28;20041;-63
2024/01/27 11:52:28;;;;;;;7.63;4.10;;;5.00;99.90;;;;;;5051873;28;20044;-64
2024/01/27 11:55:00;;;;;;;10.82;4.15;;;5.10;99.90;;;;;;5052941;28;20052;-64
2024/01/27 11:57:32;;;;;;;12.00;5.60;;;5.10;99.90;;;;;;5053379;28;20064;-66
2024/01/27 12:00:05;;;;;;;10.85;4.63;;;5.20;99.90;;;;;;5048593;28;20055;-64
2024/01/27 12:02:38;;;;;;;11.30;4.00;;;5.20;99.90;;;;;;5050256;28;20065;-71
2024/01/27 12:05:06;;;;;;;14.15;6.07;;;5.30;99.90;;;;;;5044166;28;20125;-64
2024/01/27 12:07:39;;;;;;;15.38;5.28;;;5.30;99.90;;;;;;5051812;28;20069;-64
2024/01/27 12:10:11;;;;;;;6.70;3.22;;;5.40;99.90;;;;;;5041174;28;20043;-64
2024/01/27 12:12:42;;;;;;;12.02;5.97;;;5.50;99.90;;;;;;5057863;28;20539;-64
2024/01/27 12:15:15;;;;;;;8.70;4.30;;;5.50;99.90;;;;;;5046868;28;20509;-64
2024/01/27 12:17:42;;;;;;;9.48;4.40;;;5.60;99.90;;;;;;5052492;28;20402;-64
2024/01/27 12:20:17;;;;;;;18.08;2.97;;;5.70;99.90;;;;;;5050502;28;20048;-64
2024/01/27 12:22:43;;;;;;;5.00;2.25;;;5.70;99.90;;;;;;5050084;28;20049;-64
2024/01/27 12:25:15;;;;;;;6.47;2.20;;;5.80;99.90;;;;;;5059702;28;20052;-64
2024/01/27 12:27:47;;;;;;;3.80;1.80;;;5.80;99.90;;;;;;5057140;28;20502;-64
2024/01/27 12:30:21;;;;;;;4.20;2.08;;;5.80;99.90;;;;;;5057813;28;20141;-64
2024/01/27 12:32:53;;;;;;;5.28;1.88;;;5.80;99.90;;;;;;5059258;28;20132;-66
2024/01/27 12:35:27;;;;;;;4.50;2.42;;;5.90;99.90;;;;;;5052772;28;20048;-64
2024/01/27 12:38:00;;;;;;;14.45;7.28;;;5.90;99.90;;;;;;5044555;28;20055;-64
2024/01/27 12:40:32;;;;;;;11.80;5.55;;;6.10;99.90;;;;;;5052182;28;20129;-65
2024/01/27 12:43:04;;;;;;;15.18;5.60;;;6.20;99.90;;;;;;5037923;28;20041;-64
2024/01/27 12:45:36;;;;;;;17.85;6.75;;;6.30;99.90;;;;;;5059272;28;20117;-64
2024/01/27 12:48:08;;;;;;;5.65;2.45;;;6.40;99.90;;;;;;5046973;28;20102;-64
2024/01/27 12:50:39;;;;;;;9.70;2.10;;;6.50;99.90;;;;;;5057939;28;20041;-64
2024/01/27 12:53:11;;;;;;;6.05;2.58;;;6.50;99.90;;;;;;5043040;28;20045;-64
2024/01/27 12:55:43;;;;;;;8.68;3.17;;;6.50;99.90;;;;;;5055565;28;20068;-64
2024/01/27 12:58:15;;;;;;;3.88;2.10;;;6.60;99.90;;;;;;5058160;28;20044;-64
2024/01/27 13:00:47;;;;;;;11.45;4.00;;;6.60;99.90;;;;;;5058905;28;20513;-64
2024/01/27 13:03:14;;;;;;;9.15;4.72;;;6.70;99.90;;;;;;5062544;28;20033;-64
2024/01/27 13:05:45;;;;;;;7.70;3.53;;;6.70;99.90;;;;;;5061390;28;20064;-64
2024/01/27 13:08:17;;;;;;;5.07;1.85;;;6.80;99.90;;;;;;5062189;28;20509;-64
2024/01/27 13:10:49;;;;;;;6.72;3.00;;;6.80;99.90;;;;;;5052565;28;20047;-64
2024/01/27 13:13:21;;;;;;;5.97;2.58;;;6.90;99.90;;;;;;5045288;28;20064;-64
2024/01/27 13:15:53;;;;;;;5.38;1.80;;;6.90;99.90;;;;;;5060982;28;20036;-65
2024/01/27 13:18:25;;;;;;;5.65;1.98;;;7.00;99.90;;;;;;5064285;28;20040;-64